sensor_id;sensor_type;location;lat;lon;timestamp;P1;durP1;ratioP1;P2;durP2;ratioP2
64832;SDS011;51290;45.060;38.948;2023-11-19T00:00:06;8.45;;;6.43;;
64832;SDS011;51290;45.060;38.948;2023-11-19T00:02:39;7.18;;;5.57;;
64832;SDS011;51290;45.060;38.948;2023-11-19T00:05:06;8.38;;;6.18;;
64832;SDS011;51290;45.060;38.948;2023-11-19T00:07:36;7.20;;;5.30;;
64832;SDS011;51290;45.060;38.948;2023-11-19T00:12:43;9.75;;;6.65;;
64832;SDS011;51290;45.060;38.948;2023-11-19T00:15:12;7.57;;;5.07;;
64832;SDS011;51290;45.060;38.948;2023-11-19T00:17:39;9.65;;;6.50;;
64832;SDS011;51290;45.060;38.948;2023-11-19T00:20:16;10.45;;;6.60;;
64832;SDS011;51290;45.060;38.948;2023-11-19T00:22:43;11.77;;;7.45;;
64832;SDS011;51290;45.060;38.948;2023-11-19T00:25:11;9.30;;;6.55;;
64832;SDS011;51290;45.060;38.948;2023-11-19T00:27:37;10.73;;;7.70;;
64832;SDS011;51290;45.060;38.948;2023-11-19T00:30:04;8.88;;;7.03;;
64832;SDS011;51290;45.060;38.948;2023-11-19T00:32:32;8.55;;;6.63;;
64832;SDS011;51290;45.060;38.948;2023-11-19T00:34:59;9.20;;;6.15;;
64832;SDS011;51290;45.060;38.948;2023-11-19T00:37:25;7.45;;;5.57;;
64832;SDS011;51290;45.060;38.948;2023-11-19T00:39:52;9.75;;;6.72;;
64832;SDS011;51290;45.060;38.948;2023-11-19T00:42:18;10.15;;;7.25;;
64832;SDS011;51290;45.060;38.948;2023-11-19T00:44:44;6.97;;;5.70;;
64832;SDS011;51290;45.060;38.948;2023-11-19T00:47:11;8.15;;;6.63;;
64832;SDS011;51290;45.060;38.948;2023-11-19T00:49:37;11.77;;;6.63;;
64832;SDS011;51290;45.060;38.948;2023-11-19T00:52:03;10.00;;;7.15;;
64832;SDS011;51290;45.060;38.948;2023-11-19T00:54:29;7.93;;;6.97;;
64832;SDS011;51290;45.060;38.948;2023-11-19T00:56:55;16.65;;;8.93;;
64832;SDS011;51290;45.060;38.948;2023-11-19T00:59:22;10.38;;;7.57;;
64832;SDS011;51290;45.060;38.948;2023-11-19T01:01:48;12.90;;;8.65;;
64832;SDS011;51290;45.060;38.948;2023-11-19T01:04:14;13.80;;;8.70;;
64832;SDS011;51290;45.060;38.948;2023-11-19T01:06:40;11.82;;;9.13;;
64832;SDS011;51290;45.060;38.948;2023-11-19T01:09:07;9.00;;;6.35;;
64832;SDS011;51290;45.060;38.948;2023-11-19T01:11:34;17.67;;;10.52;;
64832;SDS011;51290;45.060;38.948;2023-11-19T01:14:01;13.73;;;10.18;;
64832;SDS011;51290;45.060;38.948;2023-11-19T01:16:27;10.60;;;8.18;;
64832;SDS011;51290;45.060;38.948;2023-11-19T01:18:53;14.65;;;10.55;;
64832;SDS011;51290;45.060;38.948;2023-11-19T01:21:19;12.05;;;9.73;;
64832;SDS011;51290;45.060;38.948;2023-11-19T01:23:45;14.55;;;8.13;;
64832;SDS011;51290;45.060;38.948;2023-11-19T01:26:11;10.48;;;9.25;;
64832;SDS011;51290;45.060;38.948;2023-11-19T01:28:38;13.15;;;10.02;;
64832;SDS011;51290;45.060;38.948;2023-11-19T01:31:14;17.98;;;10.68;;
64832;SDS011;51290;45.060;38.948;2023-11-19T01:33:41;14.10;;;9.13;;
64832;SDS011;51290;45.060;38.948;2023-11-19T01:36:07;11.85;;;8.93;;
64832;SDS011;51290;45.060;38.948;2023-11-19T01:38:36;15.35;;;11.02;;
64832;SDS011;51290;45.060;38.948;2023-11-19T01:41:02;15.05;;;10.98;;
64832;SDS011;51290;45.060;38.948;2023-11-19T01:43:35;11.15;;;8.93;;
64832;SDS011;51290;45.060;38.948;2023-11-19T01:46:02;10.32;;;8.15;;
64832;SDS011;51290;45.060;38.948;2023-11-19T01:48:30;13.18;;;10.27;;
64832;SDS011;51290;45.060;38.948;2023-11-19T01:50:58;19.52;;;9.43;;
64832;SDS011;51290;45.060;38.948;2023-11-19T01:53:25;11.43;;;9.20;;
64832;SDS011;51290;45.060;38.948;2023-11-19T01:55:52;11.65;;;7.82;;
64832;SDS011;51290;45.060;38.948;2023-11-19T01:58:18;9.63;;;8.43;;
64832;SDS011;51290;45.060;38.948;2023-11-19T02:00:45;13.23;;;8.70;;
64832;SDS011;51290;45.060;38.948;2023-11-19T02:03:12;12.52;;;9.52;;
64832;SDS011;51290;45.060;38.948;2023-11-19T02:05:39;11.20;;;9.20;;
64832;SDS011;51290;45.060;38.948;2023-11-19T02:08:05;10.48;;;8.90;;
64832;SDS011;51290;45.060;38.948;2023-11-19T02:10:31;10.40;;;7.53;;
64832;SDS011;51290;45.060;38.948;2023-11-19T02:12:58;9.55;;;8.02;;
64832;SDS011;51290;45.060;38.948;2023-11-19T02:15:24;9.15;;;6.90;;
64832;SDS011;51290;45.060;38.948;2023-11-19T02:17:50;13.15;;;9.13;;
64832;SDS011;51290;45.060;38.948;2023-11-19T02:20:17;12.18;;;8.82;;
64832;SDS011;51290;45.060;38.948;2023-11-19T02:22:48;10.80;;;7.00;;
64832;SDS011;51290;45.060;38.948;2023-11-19T02:25:23;9.98;;;7.72;;
64832;SDS011;51290;45.060;38.948;2023-11-19T02:27:58;10.80;;;8.50;;
64832;SDS011;51290;45.060;38.948;2023-11-19T02:30:26;12.75;;;7.78;;
64832;SDS011;51290;45.060;38.948;2023-11-19T02:32:54;7.40;;;6.22;;
64832;SDS011;51290;45.060;38.948;2023-11-19T02:35:24;9.02;;;7.05;;
64832;SDS011;51290;45.060;38.948;2023-11-19T02:37:51;7.47;;;4.95;;
64832;SDS011;51290;45.060;38.948;2023-11-19T02:40:17;9.25;;;7.60;;
64832;SDS011;51290;45.060;38.948;2023-11-19T02:42:43;10.40;;;8.35;;
64832;SDS011;51290;45.060;38.948;2023-11-19T02:45:10;10.68;;;9.02;;
64832;SDS011;51290;45.060;38.948;2023-11-19T02:47:40;14.77;;;8.90;;
64832;SDS011;51290;45.060;38.948;2023-11-19T02:50:09;9.38;;;6.18;;
64832;SDS011;51290;45.060;38.948;2023-11-19T02:52:41;10.15;;;7.72;;
64832;SDS011;51290;45.060;38.948;2023-11-19T02:55:08;10.73;;;7.75;;
64832;SDS011;51290;45.060;38.948;2023-11-19T02:57:41;9.07;;;7.22;;
64832;SDS011;51290;45.060;38.948;2023-11-19T03:00:17;8.38;;;6.75;;
64832;SDS011;51290;45.060;38.948;2023-11-19T03:02:49;11.30;;;6.80;;
64832;SDS011;51290;45.060;38.948;2023-11-19T03:05:24;6.80;;;5.13;;
64832;SDS011;51290;45.060;38.948;2023-11-19T03:07:52;7.07;;;5.85;;
64832;SDS011;51290;45.060;38.948;2023-11-19T03:10:18;7.82;;;6.00;;
64832;SDS011;51290;45.060;38.948;2023-11-19T03:12:44;6.65;;;5.40;;
64832;SDS011;51290;45.060;38.948;2023-11-19T03:15:11;6.18;;;4.88;;
64832;SDS011;51290;45.060;38.948;2023-11-19T03:17:40;9.18;;;5.95;;
64832;SDS011;51290;45.060;38.948;2023-11-19T03:20:09;6.82;;;5.60;;
64832;SDS011;51290;45.060;38.948;2023-11-19T03:22:36;7.93;;;5.57;;
64832;SDS011;51290;45.060;38.948;2023-11-19T03:25:03;6.40;;;4.75;;
64832;SDS011;51290;45.060;38.948;2023-11-19T03:27:29;7.55;;;5.00;;
64832;SDS011;51290;45.060;38.948;2023-11-19T03:29:55;7.20;;;5.30;;
64832;SDS011;51290;45.060;38.948;2023-11-19T03:32:21;6.72;;;4.45;;
64832;SDS011;51290;45.060;38.948;2023-11-19T03:34:47;3.47;;;2.50;;
64832;SDS011;51290;45.060;38.948;2023-11-19T03:37:13;3.28;;;2.92;;
64832;SDS011;51290;45.060;38.948;2023-11-19T03:39:42;4.88;;;4.15;;
64832;SDS011;51290;45.060;38.948;2023-11-19T03:42:08;6.95;;;4.47;;
64832;SDS011;51290;45.060;38.948;2023-11-19T03:44:34;6.63;;;3.75;;
64832;SDS011;51290;45.060;38.948;2023-11-19T03:47:00;3.63;;;3.13;;
64832;SDS011;51290;45.060;38.948;2023-11-19T03:49:26;3.80;;;2.72;;
64832;SDS011;51290;45.060;38.948;2023-11-19T03:51:53;7.32;;;4.20;;
64832;SDS011;51290;45.060;38.948;2023-11-19T03:54:19;2.70;;;2.28;;
64832;SDS011;51290;45.060;38.948;2023-11-19T03:56:46;3.17;;;2.72;;
64832;SDS011;51290;45.060;38.948;2023-11-19T03:59:11;3.08;;;2.05;;
64832;SDS011;51290;45.060;38.948;2023-11-19T04:01:37;3.00;;;2.70;;
64832;SDS011;51290;45.060;38.948;2023-11-19T04:04:03;4.95;;;3.47;;
64832;SDS011;51290;45.060;38.948;2023-11-19T04:06:29;3.15;;;2.85;;
64832;SDS011;51290;45.060;38.948;2023-11-19T04:08:55;2.53;;;2.33;;
64832;SDS011;51290;45.060;38.948;2023-11-19T04:11:21;2.53;;;2.33;;
64832;SDS011;51290;45.060;38.948;2023-11-19T04:13:47;2.22;;;2.03;;
64832;SDS011;51290;45.060;38.948;2023-11-19T04:16:13;2.35;;;2.08;;
64832;SDS011;51290;45.060;38.948;2023-11-19T04:18:40;2.47;;;2.28;;
64832;SDS011;51290;45.060;38.948;2023-11-19T04:21:07;2.20;;;2.03;;
64832;SDS011;51290;45.060;38.948;2023-11-19T04:23:33;2.22;;;2.03;;
64832;SDS011;51290;45.060;38.948;2023-11-19T04:26:01;2.47;;;2.10;;
64832;SDS011;51290;45.060;38.948;2023-11-19T04:28:29;2.47;;;2.15;;
64832;SDS011;51290;45.060;38.948;2023-11-19T04:30:56;2.05;;;1.63;;
64832;SDS011;51290;45.060;38.948;2023-11-19T04:33:22;2.25;;;2.05;;
64832;SDS011;51290;45.060;38.948;2023-11-19T04:35:47;1.90;;;1.80;;
64832;SDS011;51290;45.060;38.948;2023-11-19T04:38:13;2.60;;;1.88;;
64832;SDS011;51290;45.060;38.948;2023-11-19T04:40:39;2.08;;;1.73;;
64832;SDS011;51290;45.060;38.948;2023-11-19T04:43:06;2.22;;;1.83;;
64832;SDS011;51290;45.060;38.948;2023-11-19T04:45:32;2.47;;;2.10;;
64832;SDS011;51290;45.060;38.948;2023-11-19T04:47:59;1.70;;;1.60;;
64832;SDS011;51290;45.060;38.948;2023-11-19T04:50:25;1.98;;;1.80;;
64832;SDS011;51290;45.060;38.948;2023-11-19T04:52:52;2.40;;;2.20;;
64832;SDS011;51290;45.060;38.948;2023-11-19T04:55:19;2.08;;;1.60;;
64832;SDS011;51290;45.060;38.948;2023-11-19T04:57:45;2.13;;;1.85;;
64832;SDS011;51290;45.060;38.948;2023-11-19T05:00:11;1.95;;;1.77;;
64832;SDS011;51290;45.060;38.948;2023-11-19T05:02:37;2.05;;;1.38;;
64832;SDS011;51290;45.060;38.948;2023-11-19T05:05:03;0.98;;;0.95;;
64832;SDS011;51290;45.060;38.948;2023-11-19T05:07:30;1.63;;;1.52;;
64832;SDS011;51290;45.060;38.948;2023-11-19T05:09:56;1.58;;;1.48;;
64832;SDS011;51290;45.060;38.948;2023-11-19T05:12:22;2.20;;;2.00;;
64832;SDS011;51290;45.060;38.948;2023-11-19T05:14:48;2.95;;;2.05;;
64832;SDS011;51290;45.060;38.948;2023-11-19T05:17:16;1.83;;;1.70;;
64832;SDS011;51290;45.060;38.948;2023-11-19T05:19:43;1.92;;;1.83;;
64832;SDS011;51290;45.060;38.948;2023-11-19T05:22:10;2.70;;;1.90;;
64832;SDS011;51290;45.060;38.948;2023-11-19T05:24:35;1.75;;;1.65;;
64832;SDS011;51290;45.060;38.948;2023-11-19T05:27:02;1.50;;;1.40;;
64832;SDS011;51290;45.060;38.948;2023-11-19T05:29:28;1.90;;;1.80;;
64832;SDS011;51290;45.060;38.948;2023-11-19T05:31:54;2.45;;;1.38;;
64832;SDS011;51290;45.060;38.948;2023-11-19T05:34:20;1.90;;;1.80;;
64832;SDS011;51290;45.060;38.948;2023-11-19T05:36:47;2.50;;;2.08;;
64832;SDS011;51290;45.060;38.948;2023-11-19T05:39:12;3.00;;;2.00;;
64832;SDS011;51290;45.060;38.948;2023-11-19T05:41:38;2.80;;;2.10;;
64832;SDS011;51290;45.060;38.948;2023-11-19T05:44:04;2.67;;;2.17;;
64832;SDS011;51290;45.060;38.948;2023-11-19T05:46:31;1.85;;;1.75;;
64832;SDS011;51290;45.060;38.948;2023-11-19T05:48:57;5.35;;;2.30;;
64832;SDS011;51290;45.060;38.948;2023-11-19T05:51:23;2.53;;;2.33;;
64832;SDS011;51290;45.060;38.948;2023-11-19T05:53:50;2.58;;;2.20;;
64832;SDS011;51290;45.060;38.948;2023-11-19T05:56:16;2.53;;;2.33;;
64832;SDS011;51290;45.060;38.948;2023-11-19T05:58:47;3.05;;;2.40;;
64832;SDS011;51290;45.060;38.948;2023-11-19T06:01:14;3.70;;;2.50;;
64832;SDS011;51290;45.060;38.948;2023-11-19T06:03:40;2.40;;;2.20;;
64832;SDS011;51290;45.060;38.948;2023-11-19T06:06:08;3.20;;;2.47;;
64832;SDS011;51290;45.060;38.948;2023-11-19T06:08:34;2.60;;;2.35;;
64832;SDS011;51290;45.060;38.948;2023-11-19T06:11:00;3.67;;;2.55;;
64832;SDS011;51290;45.060;38.948;2023-11-19T06:13:27;3.90;;;2.53;;
64832;SDS011;51290;45.060;38.948;2023-11-19T06:15:52;1.85;;;1.70;;
64832;SDS011;51290;45.060;38.948;2023-11-19T06:18:18;2.58;;;2.35;;
64832;SDS011;51290;45.060;38.948;2023-11-19T06:20:48;3.22;;;2.50;;
64832;SDS011;51290;45.060;38.948;2023-11-19T06:23:15;2.85;;;2.47;;
64832;SDS011;51290;45.060;38.948;2023-11-19T06:25:40;3.30;;;2.45;;
64832;SDS011;51290;45.060;38.948;2023-11-19T06:28:06;4.15;;;3.00;;
64832;SDS011;51290;45.060;38.948;2023-11-19T06:30:32;4.10;;;3.28;;
64832;SDS011;51290;45.060;38.948;2023-11-19T06:32:58;3.83;;;2.72;;
64832;SDS011;51290;45.060;38.948;2023-11-19T06:35:25;3.97;;;3.22;;
64832;SDS011;51290;45.060;38.948;2023-11-19T06:37:51;2.60;;;2.40;;
64832;SDS011;51290;45.060;38.948;2023-11-19T06:40:17;6.07;;;3.10;;
64832;SDS011;51290;45.060;38.948;2023-11-19T06:42:43;4.05;;;2.83;;
64832;SDS011;51290;45.060;38.948;2023-11-19T06:45:09;5.45;;;3.20;;
64832;SDS011;51290;45.060;38.948;2023-11-19T06:47:35;8.13;;;3.28;;
64832;SDS011;51290;45.060;38.948;2023-11-19T06:50:01;4.45;;;3.30;;
64832;SDS011;51290;45.060;38.948;2023-11-19T06:52:30;8.98;;;3.58;;
64832;SDS011;51290;45.060;38.948;2023-11-19T06:54:56;5.20;;;3.60;;
64832;SDS011;51290;45.060;38.948;2023-11-19T06:57:22;5.63;;;3.90;;
64832;SDS011;51290;45.060;38.948;2023-11-19T06:59:49;6.53;;;3.70;;
64832;SDS011;51290;45.060;38.948;2023-11-19T07:02:15;4.40;;;3.10;;
64832;SDS011;51290;45.060;38.948;2023-11-19T07:04:41;6.32;;;3.85;;
64832;SDS011;51290;45.060;38.948;2023-11-19T07:07:07;4.68;;;3.63;;
64832;SDS011;51290;45.060;38.948;2023-11-19T07:09:33;3.70;;;3.00;;
64832;SDS011;51290;45.060;38.948;2023-11-19T07:12:00;5.65;;;3.10;;
64832;SDS011;51290;45.060;38.948;2023-11-19T07:14:27;3.38;;;2.63;;
64832;SDS011;51290;45.060;38.948;2023-11-19T07:16:54;3.78;;;2.67;;
64832;SDS011;51290;45.060;38.948;2023-11-19T07:19:21;4.82;;;2.83;;
64832;SDS011;51290;45.060;38.948;2023-11-19T07:21:47;3.92;;;3.53;;
64832;SDS011;51290;45.060;38.948;2023-11-19T07:24:13;3.65;;;3.00;;
64832;SDS011;51290;45.060;38.948;2023-11-19T07:26:45;6.28;;;3.78;;
64832;SDS011;51290;45.060;38.948;2023-11-19T07:29:15;5.53;;;3.60;;
64832;SDS011;51290;45.060;38.948;2023-11-19T07:31:42;3.80;;;3.08;;
64832;SDS011;51290;45.060;38.948;2023-11-19T07:34:09;5.50;;;3.55;;
64832;SDS011;51290;45.060;38.948;2023-11-19T07:36:36;5.22;;;3.28;;
64832;SDS011;51290;45.060;38.948;2023-11-19T07:39:03;5.20;;;3.67;;
64832;SDS011;51290;45.060;38.948;2023-11-19T07:41:33;5.82;;;2.80;;
64832;SDS011;51290;45.060;38.948;2023-11-19T07:44:00;4.85;;;3.40;;
64832;SDS011;51290;45.060;38.948;2023-11-19T07:46:26;3.80;;;3.03;;
64832;SDS011;51290;45.060;38.948;2023-11-19T07:48:52;3.67;;;2.92;;
64832;SDS011;51290;45.060;38.948;2023-11-19T07:51:18;4.00;;;2.92;;
64832;SDS011;51290;45.060;38.948;2023-11-19T07:53:44;4.43;;;2.90;;
64832;SDS011;51290;45.060;38.948;2023-11-19T07:56:10;4.10;;;2.65;;
64832;SDS011;51290;45.060;38.948;2023-11-19T07:58:36;5.10;;;3.15;;
64832;SDS011;51290;45.060;38.948;2023-11-19T08:01:02;4.55;;;3.63;;
64832;SDS011;51290;45.060;38.948;2023-11-19T08:03:29;4.15;;;3.05;;
64832;SDS011;51290;45.060;38.948;2023-11-19T08:05:55;3.50;;;2.92;;
64832;SDS011;51290;45.060;38.948;2023-11-19T08:08:24;4.40;;;3.25;;
64832;SDS011;51290;45.060;38.948;2023-11-19T08:10:50;4.38;;;3.60;;
64832;SDS011;51290;45.060;38.948;2023-11-19T08:13:20;4.35;;;3.50;;
64832;SDS011;51290;45.060;38.948;2023-11-19T08:15:46;3.83;;;3.30;;
64832;SDS011;51290;45.060;38.948;2023-11-19T08:18:12;4.68;;;3.60;;
64832;SDS011;51290;45.060;38.948;2023-11-19T08:20:38;4.43;;;3.38;;
64832;SDS011;51290;45.060;38.948;2023-11-19T08:23:04;4.28;;;3.60;;
64832;SDS011;51290;45.060;38.948;2023-11-19T08:25:30;5.68;;;3.67;;
64832;SDS011;51290;45.060;38.948;2023-11-19T08:27:58;6.55;;;3.80;;
64832;SDS011;51290;45.060;38.948;2023-11-19T08:30:24;14.90;;;3.22;;
64832;SDS011;51290;45.060;38.948;2023-11-19T08:32:50;4.22;;;2.92;;
64832;SDS011;51290;45.060;38.948;2023-11-19T08:35:16;4.40;;;3.35;;
64832;SDS011;51290;45.060;38.948;2023-11-19T08:37:42;2.60;;;2.40;;
64832;SDS011;51290;45.060;38.948;2023-11-19T08:40:08;2.33;;;2.13;;
64832;SDS011;51290;45.060;38.948;2023-11-19T08:42:35;4.68;;;3.13;;
64832;SDS011;51290;45.060;38.948;2023-11-19T08:45:01;4.50;;;3.00;;
64832;SDS011;51290;45.060;38.948;2023-11-19T08:47:27;3.38;;;2.60;;
64832;SDS011;51290;45.060;38.948;2023-11-19T08:49:53;3.22;;;2.55;;
64832;SDS011;51290;45.060;38.948;2023-11-19T08:52:20;2.33;;;2.08;;
64832;SDS011;51290;45.060;38.948;2023-11-19T08:54:46;4.13;;;3.00;;
64832;SDS011;51290;45.060;38.948;2023-11-19T08:57:12;2.90;;;2.53;;
64832;SDS011;51290;45.060;38.948;2023-11-19T08:59:38;3.17;;;2.70;;
64832;SDS011;51290;45.060;38.948;2023-11-19T09:02:05;3.13;;;2.70;;
64832;SDS011;51290;45.060;38.948;2023-11-19T09:04:56;3.00;;;2.60;;
64832;SDS011;51290;45.060;38.948;2023-11-19T09:07:22;3.17;;;2.50;;
64832;SDS011;51290;45.060;38.948;2023-11-19T09:09:48;2.42;;;2.22;;
64832;SDS011;51290;45.060;38.948;2023-11-19T09:12:14;3.67;;;2.83;;
64832;SDS011;51290;45.060;38.948;2023-11-19T09:14:40;3.33;;;2.63;;
64832;SDS011;51290;45.060;38.948;2023-11-19T09:17:07;6.72;;;3.17;;
64832;SDS011;51290;45.060;38.948;2023-11-19T09:19:34;3.50;;;2.90;;
64832;SDS011;51290;45.060;38.948;2023-11-19T09:22:01;3.03;;;2.67;;
64832;SDS011;51290;45.060;38.948;2023-11-19T09:24:27;3.88;;;2.88;;
64832;SDS011;51290;45.060;38.948;2023-11-19T09:26:53;4.90;;;3.17;;
64832;SDS011;51290;45.060;38.948;2023-11-19T09:29:21;4.72;;;3.38;;
64832;SDS011;51290;45.060;38.948;2023-11-19T09:31:47;5.18;;;3.42;;
64832;SDS011;51290;45.060;38.948;2023-11-19T09:34:13;4.60;;;3.58;;
64832;SDS011;51290;45.060;38.948;2023-11-19T09:36:39;6.78;;;3.90;;
64832;SDS011;51290;45.060;38.948;2023-11-19T09:39:10;6.22;;;4.10;;
64832;SDS011;51290;45.060;38.948;2023-11-19T09:41:46;5.63;;;4.47;;
64832;SDS011;51290;45.060;38.948;2023-11-19T09:44:12;4.00;;;3.60;;
64832;SDS011;51290;45.060;38.948;2023-11-19T09:46:42;6.80;;;4.68;;
64832;SDS011;51290;45.060;38.948;2023-11-19T09:49:08;6.45;;;4.65;;
64832;SDS011;51290;45.060;38.948;2023-11-19T09:51:36;5.45;;;3.95;;
64832;SDS011;51290;45.060;38.948;2023-11-19T09:54:02;5.50;;;4.25;;
64832;SDS011;51290;45.060;38.948;2023-11-19T09:56:29;5.93;;;4.38;;
64832;SDS011;51290;45.060;38.948;2023-11-19T09:58:56;5.65;;;4.20;;
64832;SDS011;51290;45.060;38.948;2023-11-19T10:01:22;7.43;;;4.57;;
64832;SDS011;51290;45.060;38.948;2023-11-19T10:03:48;6.70;;;4.65;;
64832;SDS011;51290;45.060;38.948;2023-11-19T10:06:15;6.32;;;4.03;;
64832;SDS011;51290;45.060;38.948;2023-11-19T10:08:41;7.22;;;5.00;;
64832;SDS011;51290;45.060;38.948;2023-11-19T10:11:08;10.18;;;4.63;;
64832;SDS011;51290;45.060;38.948;2023-11-19T10:13:38;8.18;;;4.90;;
64832;SDS011;51290;45.060;38.948;2023-11-19T10:16:07;5.35;;;4.40;;
64832;SDS011;51290;45.060;38.948;2023-11-19T10:18:36;7.03;;;4.82;;
64832;SDS011;51290;45.060;38.948;2023-11-19T10:21:04;10.07;;;6.30;;
64832;SDS011;51290;45.060;38.948;2023-11-19T10:23:49;7.47;;;4.30;;
64832;SDS011;51290;45.060;38.948;2023-11-19T10:26:17;8.40;;;4.97;;
64832;SDS011;51290;45.060;38.948;2023-11-19T10:28:45;6.15;;;4.43;;
64832;SDS011;51290;45.060;38.948;2023-11-19T10:31:15;5.63;;;4.32;;
64832;SDS011;51290;45.060;38.948;2023-11-19T10:33:43;9.55;;;4.47;;
64832;SDS011;51290;45.060;38.948;2023-11-19T10:36:10;5.90;;;3.88;;
64832;SDS011;51290;45.060;38.948;2023-11-19T10:38:38;6.22;;;4.28;;
64832;SDS011;51290;45.060;38.948;2023-11-19T10:41:04;5.10;;;3.63;;
64832;SDS011;51290;45.060;38.948;2023-11-19T10:43:30;7.13;;;4.20;;
64832;SDS011;51290;45.060;38.948;2023-11-19T10:46:09;7.45;;;4.70;;
64832;SDS011;51290;45.060;38.948;2023-11-19T10:48:37;5.25;;;4.00;;
64832;SDS011;51290;45.060;38.948;2023-11-19T10:51:04;7.82;;;4.32;;
64832;SDS011;51290;45.060;38.948;2023-11-19T10:53:36;7.70;;;4.40;;
64832;SDS011;51290;45.060;38.948;2023-11-19T10:56:08;6.82;;;4.50;;
64832;SDS011;51290;45.060;38.948;2023-11-19T10:58:37;5.82;;;4.43;;
64832;SDS011;51290;45.060;38.948;2023-11-19T11:01:13;6.22;;;4.55;;
64832;SDS011;51290;45.060;38.948;2023-11-19T11:03:46;6.75;;;4.22;;
64832;SDS011;51290;45.060;38.948;2023-11-19T11:06:13;6.60;;;5.43;;
64832;SDS011;51290;45.060;38.948;2023-11-19T11:08:39;7.00;;;4.90;;
64832;SDS011;51290;45.060;38.948;2023-11-19T11:11:05;6.22;;;4.53;;
64832;SDS011;51290;45.060;38.948;2023-11-19T11:13:33;5.00;;;3.92;;
64832;SDS011;51290;45.060;38.948;2023-11-19T11:16:01;7.07;;;4.97;;
64832;SDS011;51290;45.060;38.948;2023-11-19T11:18:29;5.63;;;3.95;;
64832;SDS011;51290;45.060;38.948;2023-11-19T11:21:16;5.28;;;4.25;;
64832;SDS011;51290;45.060;38.948;2023-11-19T11:32:43;9.75;;;6.35;;
64832;SDS011;51290;45.060;38.948;2023-11-19T11:35:30;8.35;;;5.70;;
64832;SDS011;51290;45.060;38.948;2023-11-19T11:38:15;13.80;;;7.85;;
64832;SDS011;51290;45.060;38.948;2023-11-19T11:43:47;9.30;;;6.20;;
64832;SDS011;51290;45.060;38.948;2023-11-19T11:49:01;7.75;;;5.95;;
64832;SDS011;51290;45.060;38.948;2023-11-19T11:54:09;8.30;;;5.53;;
64832;SDS011;51290;45.060;38.948;2023-11-19T11:56:38;8.70;;;6.13;;
64832;SDS011;51290;45.060;38.948;2023-11-19T11:59:08;10.57;;;6.60;;
64832;SDS011;51290;45.060;38.948;2023-11-19T12:01:59;9.88;;;6.82;;
64832;SDS011;51290;45.060;38.948;2023-11-19T12:04:28;8.02;;;5.88;;
64832;SDS011;51290;45.060;38.948;2023-11-19T12:07:04;8.98;;;6.28;;
64832;SDS011;51290;45.060;38.948;2023-11-19T12:09:36;8.35;;;6.40;;
64832;SDS011;51290;45.060;38.948;2023-11-19T12:20:10;7.63;;;5.35;;
64832;SDS011;51290;45.060;38.948;2023-11-19T12:22:40;9.70;;;6.63;;
64832;SDS011;51290;45.060;38.948;2023-11-19T12:25:07;9.40;;;5.95;;
64832;SDS011;51290;45.060;38.948;2023-11-19T12:27:36;7.38;;;5.35;;
64832;SDS011;51290;45.060;38.948;2023-11-19T12:30:05;7.78;;;6.00;;
64832;SDS011;51290;45.060;38.948;2023-11-19T12:32:44;7.32;;;5.18;;
64832;SDS011;51290;45.060;38.948;2023-11-19T12:35:11;9.13;;;6.28;;
64832;SDS011;51290;45.060;38.948;2023-11-19T12:37:45;8.38;;;5.15;;
64832;SDS011;51290;45.060;38.948;2023-11-19T12:40:15;11.93;;;7.97;;
64832;SDS011;51290;45.060;38.948;2023-11-19T12:42:49;7.85;;;5.82;;
64832;SDS011;51290;45.060;38.948;2023-11-19T12:45:16;9.00;;;6.32;;
64832;SDS011;51290;45.060;38.948;2023-11-19T12:47:44;10.02;;;6.47;;
64832;SDS011;51290;45.060;38.948;2023-11-19T12:50:13;10.32;;;7.35;;
64832;SDS011;51290;45.060;38.948;2023-11-19T12:52:39;7.68;;;5.80;;
64832;SDS011;51290;45.060;38.948;2023-11-19T12:55:05;9.43;;;5.88;;
64832;SDS011;51290;45.060;38.948;2023-11-19T12:57:51;9.18;;;6.32;;
64832;SDS011;51290;45.060;38.948;2023-11-19T13:00:19;9.80;;;6.22;;
64832;SDS011;51290;45.060;38.948;2023-11-19T13:02:50;7.72;;;5.93;;
64832;SDS011;51290;45.060;38.948;2023-11-19T13:05:25;8.73;;;6.15;;
64832;SDS011;51290;45.060;38.948;2023-11-19T13:08:02;9.68;;;4.90;;
64832;SDS011;51290;45.060;38.948;2023-11-19T13:10:30;5.35;;;4.32;;
64832;SDS011;51290;45.060;38.948;2023-11-19T13:13:04;9.60;;;6.72;;
64832;SDS011;51290;45.060;38.948;2023-11-19T13:15:34;9.02;;;5.90;;
64832;SDS011;51290;45.060;38.948;2023-11-19T13:18:01;8.68;;;6.55;;
64832;SDS011;51290;45.060;38.948;2023-11-19T13:20:28;11.90;;;6.85;;
64832;SDS011;51290;45.060;38.948;2023-11-19T13:23:01;14.13;;;7.20;;
64832;SDS011;51290;45.060;38.948;2023-11-19T13:25:30;9.80;;;6.82;;
64832;SDS011;51290;45.060;38.948;2023-11-19T13:27:57;9.27;;;6.55;;
64832;SDS011;51290;45.060;38.948;2023-11-19T13:30:24;9.30;;;6.85;;
64832;SDS011;51290;45.060;38.948;2023-11-19T13:32:51;9.48;;;6.80;;
64832;SDS011;51290;45.060;38.948;2023-11-19T13:35:20;9.10;;;6.65;;
64832;SDS011;51290;45.060;38.948;2023-11-19T13:37:46;9.02;;;6.63;;
64832;SDS011;51290;45.060;38.948;2023-11-19T13:40:13;8.50;;;6.82;;
64832;SDS011;51290;45.060;38.948;2023-11-19T13:42:43;7.75;;;5.63;;
64832;SDS011;51290;45.060;38.948;2023-11-19T13:45:13;8.68;;;7.05;;
64832;SDS011;51290;45.060;38.948;2023-11-19T13:47:41;8.95;;;7.45;;
64832;SDS011;51290;45.060;38.948;2023-11-19T13:50:09;14.35;;;7.28;;
64832;SDS011;51290;45.060;38.948;2023-11-19T13:52:39;10.45;;;7.80;;
64832;SDS011;51290;45.060;38.948;2023-11-19T13:55:07;11.02;;;7.35;;
64832;SDS011;51290;45.060;38.948;2023-11-19T13:57:35;11.40;;;8.10;;
64832;SDS011;51290;45.060;38.948;2023-11-19T14:00:05;11.52;;;8.20;;
64832;SDS011;51290;45.060;38.948;2023-11-19T14:02:40;10.98;;;8.38;;
64832;SDS011;51290;45.060;38.948;2023-11-19T14:05:08;9.73;;;7.93;;
64832;SDS011;51290;45.060;38.948;2023-11-19T14:07:36;10.27;;;7.28;;
64832;SDS011;51290;45.060;38.948;2023-11-19T14:10:02;8.98;;;7.57;;
64832;SDS011;51290;45.060;38.948;2023-11-19T14:12:30;9.63;;;7.82;;
64832;SDS011;51290;45.060;38.948;2023-11-19T14:14:57;12.20;;;8.98;;
64832;SDS011;51290;45.060;38.948;2023-11-19T14:17:23;10.65;;;7.70;;
64832;SDS011;51290;45.060;38.948;2023-11-19T14:19:52;11.98;;;9.00;;
64832;SDS011;51290;45.060;38.948;2023-11-19T14:22:18;10.23;;;7.45;;
64832;SDS011;51290;45.060;38.948;2023-11-19T14:24:44;11.38;;;9.27;;
64832;SDS011;51290;45.060;38.948;2023-11-19T14:27:10;12.15;;;8.63;;
64832;SDS011;51290;45.060;38.948;2023-11-19T14:29:36;11.50;;;8.85;;
64832;SDS011;51290;45.060;38.948;2023-11-19T14:32:03;14.30;;;9.70;;
64832;SDS011;51290;45.060;38.948;2023-11-19T14:34:30;9.90;;;7.90;;
64832;SDS011;51290;45.060;38.948;2023-11-19T14:36:57;11.50;;;8.23;;
64832;SDS011;51290;45.060;38.948;2023-11-19T14:39:24;9.93;;;7.93;;
64832;SDS011;51290;45.060;38.948;2023-11-19T14:41:50;11.48;;;7.85;;
64832;SDS011;51290;45.060;38.948;2023-11-19T14:44:17;11.23;;;7.25;;
64832;SDS011;51290;45.060;38.948;2023-11-19T14:46:45;10.13;;;7.43;;
64832;SDS011;51290;45.060;38.948;2023-11-19T14:49:12;8.93;;;7.25;;
64832;SDS011;51290;45.060;38.948;2023-11-19T14:51:39;11.18;;;7.78;;
64832;SDS011;51290;45.060;38.948;2023-11-19T14:54:05;8.90;;;6.55;;
64832;SDS011;51290;45.060;38.948;2023-11-19T14:56:32;9.70;;;7.13;;
64832;SDS011;51290;45.060;38.948;2023-11-19T14:58:58;8.55;;;5.97;;
64832;SDS011;51290;45.060;38.948;2023-11-19T15:01:24;9.68;;;7.25;;